sensor_id;sensor_type;location;lat;lon;timestamp;temperature;humidity
12006;DHT22;6062;47.294;12.182;2022-09-24T00:01:14;9.10;54.20
12006;DHT22;6062;47.294;12.182;2022-09-24T00:03:47;9.10;54.50
12006;DHT22;6062;47.294;12.182;2022-09-24T00:06:15;9.10;54.30
12006;DHT22;6062;47.294;12.182;2022-09-24T00:08:45;9.10;54.30
12006;DHT22;6062;47.294;12.182;2022-09-24T00:11:13;9.10;54.20
12006;DHT22;6062;47.294;12.182;2022-09-24T00:13:39;9.10;54.20
12006;DHT22;6062;47.294;12.182;2022-09-24T00:16:11;9.10;54.00
12006;DHT22;6062;47.294;12.182;2022-09-24T00:18:39;9.10;53.90
12006;DHT22;6062;47.294;12.182;2022-09-24T00:21:18;9.10;53.70
12006;DHT22;6062;47.294;12.182;2022-09-24T00:23:54;9.10;53.60
12006;DHT22;6062;47.294;12.182;2022-09-24T00:26:26;9.10;53.70
12006;DHT22;6062;47.294;12.182;2022-09-24T00:29:12;9.10;53.60
12006;DHT22;6062;47.294;12.182;2022-09-24T00:31:40;9.10;53.60
12006;DHT22;6062;47.294;12.182;2022-09-24T00:34:06;9.10;53.50
12006;DHT22;6062;47.294;12.182;2022-09-24T00:36:32;9.10;53.40
12006;DHT22;6062;47.294;12.182;2022-09-24T00:38:59;9.10;53.40
12006;DHT22;6062;47.294;12.182;2022-09-24T00:41:28;9.10;53.40
12006;DHT22;6062;47.294;12.182;2022-09-24T00:43:58;9.10;53.20
12006;DHT22;6062;47.294;12.182;2022-09-24T00:49:16;9.20;53.10
12006;DHT22;6062;47.294;12.182;2022-09-24T00:51:46;9.20;53.20
12006;DHT22;6062;47.294;12.182;2022-09-24T00:54:23;9.20;53.30
12006;DHT22;6062;47.294;12.182;2022-09-24T00:56:53;9.20;53.20
12006;DHT22;6062;47.294;12.182;2022-09-24T00:59:23;9.20;53.10
12006;DHT22;6062;47.294;12.182;2022-09-24T01:01:50;9.10;53.10
12006;DHT22;6062;47.294;12.182;2022-09-24T01:04:20;9.10;53.10
12006;DHT22;6062;47.294;12.182;2022-09-24T01:06:47;9.10;53.20
12006;DHT22;6062;47.294;12.182;2022-09-24T01:09:15;9.00;53.30
12006;DHT22;6062;47.294;12.182;2022-09-24T01:34:51;8.90;53.70
12006;DHT22;6062;47.294;12.182;2022-09-24T01:37:26;8.90;53.90
12006;DHT22;6062;47.294;12.182;2022-09-24T01:39:57;8.90;53.80
12006;DHT22;6062;47.294;12.182;2022-09-24T01:42:26;8.90;53.90
12006;DHT22;6062;47.294;12.182;2022-09-24T01:44:54;8.90;54.00
12006;DHT22;6062;47.294;12.182;2022-09-24T01:47:33;8.90;53.90
12006;DHT22;6062;47.294;12.182;2022-09-24T01:50:06;8.90;54.20
12006;DHT22;6062;47.294;12.182;2022-09-24T01:52:47;8.90;54.10
12006;DHT22;6062;47.294;12.182;2022-09-24T01:55:20;8.90;54.10
12006;DHT22;6062;47.294;12.182;2022-09-24T01:58:00;8.90;54.10
12006;DHT22;6062;47.294;12.182;2022-09-24T02:00:32;8.90;54.10
12006;DHT22;6062;47.294;12.182;2022-09-24T02:03:04;8.90;54.10
12006;DHT22;6062;47.294;12.182;2022-09-24T02:05:41;8.90;54.10
12006;DHT22;6062;47.294;12.182;2022-09-24T02:08:25;8.90;54.20
12006;DHT22;6062;47.294;12.182;2022-09-24T02:11:03;8.90;54.20
12006;DHT22;6062;47.294;12.182;2022-09-24T02:13:42;8.80;54.10
12006;DHT22;6062;47.294;12.182;2022-09-24T02:16:15;8.80;54.10
12006;DHT22;6062;47.294;12.182;2022-09-24T02:18:47;8.80;54.20
12006;DHT22;6062;47.294;12.182;2022-09-24T02:21:17;8.80;54.30
12006;DHT22;6062;47.294;12.182;2022-09-24T02:24:03;8.80;54.30
12006;DHT22;6062;47.294;12.182;2022-09-24T02:26:32;8.80;54.40
12006;DHT22;6062;47.294;12.182;2022-09-24T02:28:58;8.70;54.30
12006;DHT22;6062;47.294;12.182;2022-09-24T02:31:34;8.70;54.40
12006;DHT22;6062;47.294;12.182;2022-09-24T02:34:07;8.70;54.80
12006;DHT22;6062;47.294;12.182;2022-09-24T02:36:57;8.70;54.60
12006;DHT22;6062;47.294;12.182;2022-09-24T02:39:33;8.60;54.70
12006;DHT22;6062;47.294;12.182;2022-09-24T02:42:02;8.60;54.60
12006;DHT22;6062;47.294;12.182;2022-09-24T02:44:30;8.60;54.80
12006;DHT22;6062;47.294;12.182;2022-09-24T02:46:57;8.60;54.90
12006;DHT22;6062;47.294;12.182;2022-09-24T02:49:23;8.60;55.00
12006;DHT22;6062;47.294;12.182;2022-09-24T02:51:48;8.50;55.10
12006;DHT22;6062;47.294;12.182;2022-09-24T02:54:14;8.50;55.10
12006;DHT22;6062;47.294;12.182;2022-09-24T02:56:40;8.50;55.30
12006;DHT22;6062;47.294;12.182;2022-09-24T02:59:07;8.40;55.20
12006;DHT22;6062;47.294;12.182;2022-09-24T03:01:34;8.40;55.10
12006;DHT22;6062;47.294;12.182;2022-09-24T03:04:00;8.40;55.10
12006;DHT22;6062;47.294;12.182;2022-09-24T03:06:26;8.40;55.20
12006;DHT22;6062;47.294;12.182;2022-09-24T03:08:52;8.40;55.30
12006;DHT22;6062;47.294;12.182;2022-09-24T03:11:19;8.40;55.40
12006;DHT22;6062;47.294;12.182;2022-09-24T03:13:49;8.40;55.40
12006;DHT22;6062;47.294;12.182;2022-09-24T03:16:16;8.40;55.40
12006;DHT22;6062;47.294;12.182;2022-09-24T03:18:43;8.40;55.50
12006;DHT22;6062;47.294;12.182;2022-09-24T03:21:13;8.40;55.40
12006;DHT22;6062;47.294;12.182;2022-09-24T03:23:41;8.40;55.50
12006;DHT22;6062;47.294;12.182;2022-09-24T03:26:07;8.30;55.30
12006;DHT22;6062;47.294;12.182;2022-09-24T03:28:34;8.40;55.40
12006;DHT22;6062;47.294;12.182;2022-09-24T03:31:00;8.40;55.40
12006;DHT22;6062;47.294;12.182;2022-09-24T03:33:30;8.40;55.40
12006;DHT22;6062;47.294;12.182;2022-09-24T03:36:09;8.30;55.40
12006;DHT22;6062;47.294;12.182;2022-09-24T03:38:54;8.30;55.50
12006;DHT22;6062;47.294;12.182;2022-09-24T03:41:25;8.30;55.60
12006;DHT22;6062;47.294;12.182;2022-09-24T03:43:52;8.30;55.70
12006;DHT22;6062;47.294;12.182;2022-09-24T03:46:18;8.20;55.80
12006;DHT22;6062;47.294;12.182;2022-09-24T03:48:44;8.20;56.10
12006;DHT22;6062;47.294;12.182;2022-09-24T03:51:14;8.20;56.20
12006;DHT22;6062;47.294;12.182;2022-09-24T03:53:43;8.10;56.40
12006;DHT22;6062;47.294;12.182;2022-09-24T03:56:10;8.10;56.40
12006;DHT22;6062;47.294;12.182;2022-09-24T03:58:37;8.10;56.60
12006;DHT22;6062;47.294;12.182;2022-09-24T04:01:05;8.00;56.60
12006;DHT22;6062;47.294;12.182;2022-09-24T04:03:31;8.00;56.80
12006;DHT22;6062;47.294;12.182;2022-09-24T04:05:57;8.00;56.80
12006;DHT22;6062;47.294;12.182;2022-09-24T04:08:23;8.00;57.00
12006;DHT22;6062;47.294;12.182;2022-09-24T04:10:49;8.00;57.20
12006;DHT22;6062;47.294;12.182;2022-09-24T04:13:16;8.00;57.30
12006;DHT22;6062;47.294;12.182;2022-09-24T04:15:43;8.00;57.40
12006;DHT22;6062;47.294;12.182;2022-09-24T04:18:09;8.00;57.40
12006;DHT22;6062;47.294;12.182;2022-09-24T04:20:36;7.90;57.50
12006;DHT22;6062;47.294;12.182;2022-09-24T04:23:02;7.90;57.80
12006;DHT22;6062;47.294;12.182;2022-09-24T04:25:29;7.90;57.90
12006;DHT22;6062;47.294;12.182;2022-09-24T04:28:01;7.90;58.00
12006;DHT22;6062;47.294;12.182;2022-09-24T04:30:29;7.90;58.10
12006;DHT22;6062;47.294;12.182;2022-09-24T04:32:56;7.80;58.20
12006;DHT22;6062;47.294;12.182;2022-09-24T04:35:25;7.80;58.30
12006;DHT22;6062;47.294;12.182;2022-09-24T04:37:52;7.80;58.40
12006;DHT22;6062;47.294;12.182;2022-09-24T04:40:17;7.80;58.50
12006;DHT22;6062;47.294;12.182;2022-09-24T04:42:43;7.80;58.50
12006;DHT22;6062;47.294;12.182;2022-09-24T04:45:11;7.80;58.60
12006;DHT22;6062;47.294;12.182;2022-09-24T04:47:38;7.80;58.80
12006;DHT22;6062;47.294;12.182;2022-09-24T04:50:07;7.80;58.90
12006;DHT22;6062;47.294;12.182;2022-09-24T04:52:34;7.80;59.00
12006;DHT22;6062;47.294;12.182;2022-09-24T04:55:00;7.80;59.00
12006;DHT22;6062;47.294;12.182;2022-09-24T04:57:28;7.80;59.20
12006;DHT22;6062;47.294;12.182;2022-09-24T05:00:02;7.80;59.30
12006;DHT22;6062;47.294;12.182;2022-09-24T05:02:29;7.80;59.50
12006;DHT22;6062;47.294;12.182;2022-09-24T05:04:55;7.80;59.40
12006;DHT22;6062;47.294;12.182;2022-09-24T05:07:21;7.80;59.90
12006;DHT22;6062;47.294;12.182;2022-09-24T05:09:46;7.90;59.60
12006;DHT22;6062;47.294;12.182;2022-09-24T05:12:12;7.90;59.50
12006;DHT22;6062;47.294;12.182;2022-09-24T05:14:38;7.90;59.50
12006;DHT22;6062;47.294;12.182;2022-09-24T05:17:04;8.00;59.50
12006;DHT22;6062;47.294;12.182;2022-09-24T05:19:30;8.00;59.50
12006;DHT22;6062;47.294;12.182;2022-09-24T05:21:55;8.00;59.40
12006;DHT22;6062;47.294;12.182;2022-09-24T05:24:21;8.10;59.40
12006;DHT22;6062;47.294;12.182;2022-09-24T05:26:47;8.10;59.50
12006;DHT22;6062;47.294;12.182;2022-09-24T05:29:31;8.10;59.40
12006;DHT22;6062;47.294;12.182;2022-09-24T05:31:57;8.20;59.40
12006;DHT22;6062;47.294;12.182;2022-09-24T05:34:24;8.20;59.50
12006;DHT22;6062;47.294;12.182;2022-09-24T05:36:50;8.30;59.60
12006;DHT22;6062;47.294;12.182;2022-09-24T05:39:16;8.30;59.60
12006;DHT22;6062;47.294;12.182;2022-09-24T05:41:41;8.30;59.60
12006;DHT22;6062;47.294;12.182;2022-09-24T05:44:08;8.40;59.70
12006;DHT22;6062;47.294;12.182;2022-09-24T05:46:35;8.40;60.10
12006;DHT22;6062;47.294;12.182;2022-09-24T05:49:01;8.60;61.20
12006;DHT22;6062;47.294;12.182;2022-09-24T05:51:27;8.80;62.30
12006;DHT22;6062;47.294;12.182;2022-09-24T05:53:52;9.10;63.00
12006;DHT22;6062;47.294;12.182;2022-09-24T05:56:18;9.50;62.90
12006;DHT22;6062;47.294;12.182;2022-09-24T05:58:43;10.00;62.20
12006;DHT22;6062;47.294;12.182;2022-09-24T06:01:13;10.40;61.30
12006;DHT22;6062;47.294;12.182;2022-09-24T06:03:39;10.90;60.90
12006;DHT22;6062;47.294;12.182;2022-09-24T06:06:05;11.40;60.50
12006;DHT22;6062;47.294;12.182;2022-09-24T06:08:31;11.90;59.70
12006;DHT22;6062;47.294;12.182;2022-09-24T06:11:02;12.40;58.90
12006;DHT22;6062;47.294;12.182;2022-09-24T06:13:30;12.90;57.40
12006;DHT22;6062;47.294;12.182;2022-09-24T06:16:08;13.30;56.00
12006;DHT22;6062;47.294;12.182;2022-09-24T06:18:35;13.60;54.60
12006;DHT22;6062;47.294;12.182;2022-09-24T06:21:06;13.80;54.00
12006;DHT22;6062;47.294;12.182;2022-09-24T06:23:35;14.00;53.50
12006;DHT22;6062;47.294;12.182;2022-09-24T06:26:04;14.20;53.40
12006;DHT22;6062;47.294;12.182;2022-09-24T06:28:32;14.30;52.40
12006;DHT22;6062;47.294;12.182;2022-09-24T06:30:59;14.40;51.50
12006;DHT22;6062;47.294;12.182;2022-09-24T06:33:25;14.50;50.80
12006;DHT22;6062;47.294;12.182;2022-09-24T06:35:52;14.50;50.50
12006;DHT22;6062;47.294;12.182;2022-09-24T06:38:18;14.50;50.70
12006;DHT22;6062;47.294;12.182;2022-09-24T06:40:45;14.50;50.40
12006;DHT22;6062;47.294;12.182;2022-09-24T06:43:15;14.50;49.90
12006;DHT22;6062;47.294;12.182;2022-09-24T06:45:43;14.50;49.70
12006;DHT22;6062;47.294;12.182;2022-09-24T06:48:10;14.50;49.20
12006;DHT22;6062;47.294;12.182;2022-09-24T06:50:42;14.50;49.00
12006;DHT22;6062;47.294;12.182;2022-09-24T06:53:10;14.40;48.50
12006;DHT22;6062;47.294;12.182;2022-09-24T06:55:37;14.40;48.70
12006;DHT22;6062;47.294;12.182;2022-09-24T06:58:08;14.40;48.60
12006;DHT22;6062;47.294;12.182;2022-09-24T07:00:39;14.30;48.70
12006;DHT22;6062;47.294;12.182;2022-09-24T07:03:06;14.30;48.60
12006;DHT22;6062;47.294;12.182;2022-09-24T07:05:39;14.20;48.40
12006;DHT22;6062;47.294;12.182;2022-09-24T07:08:05;14.20;48.60
12006;DHT22;6062;47.294;12.182;2022-09-24T07:10:31;14.10;48.80
12006;DHT22;6062;47.294;12.182;2022-09-24T07:12:56;14.00;48.80
12006;DHT22;6062;47.294;12.182;2022-09-24T07:15:22;13.90;48.80
12006;DHT22;6062;47.294;12.182;2022-09-24T07:17:48;13.90;49.10
12006;DHT22;6062;47.294;12.182;2022-09-24T07:20:18;13.80;49.10
12006;DHT22;6062;47.294;12.182;2022-09-24T07:22:44;13.80;49.30
12006;DHT22;6062;47.294;12.182;2022-09-24T07:25:11;13.80;49.50
12006;DHT22;6062;47.294;12.182;2022-09-24T07:27:37;13.80;49.70
12006;DHT22;6062;47.294;12.182;2022-09-24T07:30:07;13.80;49.80
12006;DHT22;6062;47.294;12.182;2022-09-24T07:32:34;13.80;49.60
12006;DHT22;6062;47.294;12.182;2022-09-24T07:35:00;13.80;49.60
12006;DHT22;6062;47.294;12.182;2022-09-24T07:37:26;13.80;49.60
12006;DHT22;6062;47.294;12.182;2022-09-24T07:39:51;13.70;49.00
12006;DHT22;6062;47.294;12.182;2022-09-24T07:42:17;13.70;49.10
12006;DHT22;6062;47.294;12.182;2022-09-24T07:44:43;13.70;49.20
12006;DHT22;6062;47.294;12.182;2022-09-24T07:47:10;13.60;49.20
12006;DHT22;6062;47.294;12.182;2022-09-24T07:49:35;13.50;49.00
12006;DHT22;6062;47.294;12.182;2022-09-24T07:52:03;13.50;49.20
12006;DHT22;6062;47.294;12.182;2022-09-24T07:54:28;13.50;49.50
12006;DHT22;6062;47.294;12.182;2022-09-24T07:56:55;13.50;50.40
12006;DHT22;6062;47.294;12.182;2022-09-24T07:59:21;13.50;49.70
12006;DHT22;6062;47.294;12.182;2022-09-24T08:01:47;13.50;49.40
12006;DHT22;6062;47.294;12.182;2022-09-24T08:04:13;13.60;49.60
12006;DHT22;6062;47.294;12.182;2022-09-24T08:06:38;13.60;49.80
12006;DHT22;6062;47.294;12.182;2022-09-24T08:09:04;13.70;49.50
12006;DHT22;6062;47.294;12.182;2022-09-24T08:11:31;13.70;49.50
12006;DHT22;6062;47.294;12.182;2022-09-24T08:13:58;13.80;49.60
12006;DHT22;6062;47.294;12.182;2022-09-24T08:16:24;13.90;48.60
12006;DHT22;6062;47.294;12.182;2022-09-24T08:18:54;13.90;48.20
12006;DHT22;6062;47.294;12.182;2022-09-24T08:21:20;13.80;47.60
12006;DHT22;6062;47.294;12.182;2022-09-24T08:23:46;13.70;47.70
12006;DHT22;6062;47.294;12.182;2022-09-24T08:26:12;13.60;48.20
12006;DHT22;6062;47.294;12.182;2022-09-24T08:28:39;13.50;48.50
12006;DHT22;6062;47.294;12.182;2022-09-24T08:31:11;13.40;48.80
12006;DHT22;6062;47.294;12.182;2022-09-24T08:33:38;13.30;49.50
12006;DHT22;6062;47.294;12.182;2022-09-24T08:36:07;13.30;49.30
12006;DHT22;6062;47.294;12.182;2022-09-24T08:38:33;13.30;49.10
12006;DHT22;6062;47.294;12.182;2022-09-24T08:44:01;13.30;49.20
12006;DHT22;6062;47.294;12.182;2022-09-24T08:49:43;13.30;49.10
12006;DHT22;6062;47.294;12.182;2022-09-24T08:55:06;13.30;49.40
12006;DHT22;6062;47.294;12.182;2022-09-24T09:00:35;13.20;50.10
12006;DHT22;6062;47.294;12.182;2022-09-24T09:03:35;13.20;50.50
12006;DHT22;6062;47.294;12.182;2022-09-24T09:06:02;13.30;50.70
12006;DHT22;6062;47.294;12.182;2022-09-24T09:11:02;13.50;50.90
12006;DHT22;6062;47.294;12.182;2022-09-24T09:13:35;13.70;50.90
12006;DHT22;6062;47.294;12.182;2022-09-24T09:16:28;13.90;50.80
12006;DHT22;6062;47.294;12.182;2022-09-24T09:19:03;14.10;49.00
12006;DHT22;6062;47.294;12.182;2022-09-24T09:21:44;14.20;49.40
12006;DHT22;6062;47.294;12.182;2022-09-24T09:24:26;14.40;49.50
12006;DHT22;6062;47.294;12.182;2022-09-24T09:27:11;14.50;49.10
12006;DHT22;6062;47.294;12.182;2022-09-24T09:29:50;14.70;49.00
12006;DHT22;6062;47.294;12.182;2022-09-24T09:32:40;14.90;49.30
12006;DHT22;6062;47.294;12.182;2022-09-24T09:35:35;15.10;48.90
12006;DHT22;6062;47.294;12.182;2022-09-24T09:40:58;15.40;47.80
12006;DHT22;6062;47.294;12.182;2022-09-24T09:43:47;15.60;47.10
12006;DHT22;6062;47.294;12.182;2022-09-24T09:46:20;15.70;47.40
12006;DHT22;6062;47.294;12.182;2022-09-24T09:48:52;15.70;47.00
12006;DHT22;6062;47.294;12.182;2022-09-24T09:51:26;15.80;46.50
12006;DHT22;6062;47.294;12.182;2022-09-24T09:54:02;15.80;46.20
12006;DHT22;6062;47.294;12.182;2022-09-24T09:56:32;15.90;46.20
12006;DHT22;6062;47.294;12.182;2022-09-24T10:01:43;16.00;46.10
12006;DHT22;6062;47.294;12.182;2022-09-24T10:04:36;16.00;46.10
12006;DHT22;6062;47.294;12.182;2022-09-24T10:07:04;16.00;46.40
12006;DHT22;6062;47.294;12.182;2022-09-24T10:09:30;16.10;46.10
12006;DHT22;6062;47.294;12.182;2022-09-24T10:12:17;16.10;45.80
12006;DHT22;6062;47.294;12.182;2022-09-24T10:15:02;16.20;45.90
12006;DHT22;6062;47.294;12.182;2022-09-24T10:17:40;16.10;46.30
12006;DHT22;6062;47.294;12.182;2022-09-24T10:20:17;16.20;46.40
12006;DHT22;6062;47.294;12.182;2022-09-24T10:22:59;16.20;46.40
12006;DHT22;6062;47.294;12.182;2022-09-24T10:25:30;16.20;46.10
12006;DHT22;6062;47.294;12.182;2022-09-24T10:27:59;16.30;46.20
12006;DHT22;6062;47.294;12.182;2022-09-24T10:30:57;16.30;46.00
12006;DHT22;6062;47.294;12.182;2022-09-24T10:33:37;16.30;46.00
12006;DHT22;6062;47.294;12.182;2022-09-24T10:36:11;16.20;45.40
12006;DHT22;6062;47.294;12.182;2022-09-24T10:38:40;16.20;45.70
12006;DHT22;6062;47.294;12.182;2022-09-24T10:41:26;16.20;45.90
12006;DHT22;6062;47.294;12.182;2022-09-24T10:43:55;16.20;46.10
12006;DHT22;6062;47.294;12.182;2022-09-24T10:46:57;16.10;46.10
12006;DHT22;6062;47.294;12.182;2022-09-24T10:49:50;16.10;45.80
12006;DHT22;6062;47.294;12.182;2022-09-24T11:13:39;15.90;45.90
12006;DHT22;6062;47.294;12.182;2022-09-24T11:17:28;15.80;45.70
12006;DHT22;6062;47.294;12.182;2022-09-24T11:22:43;15.60;45.60
12006;DHT22;6062;47.294;12.182;2022-09-24T11:37:53;15.00;46.50
12006;DHT22;6062;47.294;12.182;2022-09-24T11:40:45;14.80;47.00
12006;DHT22;6062;47.294;12.182;2022-09-24T11:43:25;14.80;46.70
12006;DHT22;6062;47.294;12.182;2022-09-24T11:46:19;14.70;46.30
12006;DHT22;6062;47.294;12.182;2022-09-24T11:57:46;14.20;47.80
12006;DHT22;6062;47.294;12.182;2022-09-24T12:00:19;14.20;47.90
12006;DHT22;6062;47.294;12.182;2022-09-24T12:03:05;14.20;48.20
12006;DHT22;6062;47.294;12.182;2022-09-24T12:05:41;14.10;48.40
12006;DHT22;6062;47.294;12.182;2022-09-24T12:11:29;14.10;48.30
12006;DHT22;6062;47.294;12.182;2022-09-24T12:14:04;14.10;48.20
12006;DHT22;6062;47.294;12.182;2022-09-24T12:16:40;14.10;47.60
12006;DHT22;6062;47.294;12.182;2022-09-24T12:19:27;14.00;48.00
12006;DHT22;6062;47.294;12.182;2022-09-24T12:21:57;13.90;48.30
12006;DHT22;6062;47.294;12.182;2022-09-24T12:24:35;13.80;48.30
12006;DHT22;6062;47.294;12.182;2022-09-24T12:27:09;13.80;48.60
12006;DHT22;6062;47.294;12.182;2022-09-24T12:29:59;13.70;48.80
12006;DHT22;6062;47.294;12.182;2022-09-24T12:39:09;13.60;48.90
12006;DHT22;6062;47.294;12.182;2022-09-24T12:41:43;13.50;48.60
12006;DHT22;6062;47.294;12.182;2022-09-24T12:44:15;13.50;48.40
12006;DHT22;6062;47.294;12.182;2022-09-24T12:46:57;13.40;49.10
12006;DHT22;6062;47.294;12.182;2022-09-24T12:52:00;13.30;49.50
12006;DHT22;6062;47.294;12.182;2022-09-24T12:54:29;13.30;50.30
12006;DHT22;6062;47.294;12.182;2022-09-24T12:57:39;13.30;50.60
12006;DHT22;6062;47.294;12.182;2022-09-24T13:00:31;13.40;50.30
12006;DHT22;6062;47.294;12.182;2022-09-24T13:02:59;13.50;50.50
12006;DHT22;6062;47.294;12.182;2022-09-24T13:10:56;13.60;50.30
12006;DHT22;6062;47.294;12.182;2022-09-24T13:13:32;13.70;50.20
12006;DHT22;6062;47.294;12.182;2022-09-24T13:16:21;13.70;50.40
12006;DHT22;6062;47.294;12.182;2022-09-24T13:18:58;13.80;50.40
12006;DHT22;6062;47.294;12.182;2022-09-24T13:21:27;13.90;49.90
12006;DHT22;6062;47.294;12.182;2022-09-24T13:23:55;13.90;50.00
12006;DHT22;6062;47.294;12.182;2022-09-24T13:28:56;14.00;49.80
12006;DHT22;6062;47.294;12.182;2022-09-24T13:34:03;14.00;49.50
12006;DHT22;6062;47.294;12.182;2022-09-24T13:36:38;14.00;49.80
12006;DHT22;6062;47.294;12.182;2022-09-24T13:39:46;14.00;49.20
12006;DHT22;6062;47.294;12.182;2022-09-24T13:42:49;13.90;49.00
12006;DHT22;6062;47.294;12.182;2022-09-24T13:45:23;13.90;49.30
12006;DHT22;6062;47.294;12.182;2022-09-24T13:48:01;13.80;49.60
12006;DHT22;6062;47.294;12.182;2022-09-24T13:50:32;13.70;49.90
12006;DHT22;6062;47.294;12.182;2022-09-24T13:53:11;13.70;49.70
12006;DHT22;6062;47.294;12.182;2022-09-24T13:55:51;13.70;49.70
12006;DHT22;6062;47.294;12.182;2022-09-24T14:01:01;13.60;50.10
12006;DHT22;6062;47.294;12.182;2022-09-24T14:03:30;13.50;50.30
12006;DHT22;6062;47.294;12.182;2022-09-24T14:05:58;13.50;50.20
12006;DHT22;6062;47.294;12.182;2022-09-24T14:08:26;13.50;50.50
12006;DHT22;6062;47.294;12.182;2022-09-24T14:11:23;13.40;50.70
12006;DHT22;6062;47.294;12.182;2022-09-24T14:13:49;13.40;51.10
12006;DHT22;6062;47.294;12.182;2022-09-24T14:16:17;13.30;51.00
12006;DHT22;6062;47.294;12.182;2022-09-24T14:18:44;13.30;51.10
12006;DHT22;6062;47.294;12.182;2022-09-24T14:23:50;13.20;51.80
12006;DHT22;6062;47.294;12.182;2022-09-24T14:26:44;13.10;52.10
12006;DHT22;6062;47.294;12.182;2022-09-24T14:32:07;13.00;53.00
12006;DHT22;6062;47.294;12.182;2022-09-24T14:35:27;12.80;53.10
12006;DHT22;6062;47.294;12.182;2022-09-24T14:38:13;12.70;53.80
12006;DHT22;6062;47.294;12.182;2022-09-24T14:40:46;12.70;54.20
12006;DHT22;6062;47.294;12.182;2022-09-24T14:44:04;12.60;54.40
12006;DHT22;6062;47.294;12.182;2022-09-24T14:46:31;12.50;54.60
12006;DHT22;6062;47.294;12.182;2022-09-24T14:49:22;12.40;55.10
12006;DHT22;6062;47.294;12.182;2022-09-24T14:52:28;12.40;55.50
12006;DHT22;6062;47.294;12.182;2022-09-24T14:55:18;12.30;55.80
12006;DHT22;6062;47.294;12.182;2022-09-24T14:57:47;12.30;56.20
12006;DHT22;6062;47.294;12.182;2022-09-24T15:00:28;12.20;56.00
12006;DHT22;6062;47.294;12.182;2022-09-24T15:03:10;12.20;56.00
12006;DHT22;6062;47.294;12.182;2022-09-24T15:05:39;12.10;56.20
12006;DHT22;6062;47.294;12.182;2022-09-24T15:11:02;12.00;56.70
12006;DHT22;6062;47.294;12.182;2022-09-24T15:13:35;12.00;56.70
12006;DHT22;6062;47.294;12.182;2022-09-24T15:16:16;11.90;56.50
12006;DHT22;6062;47.294;12.182;2022-09-24T15:21:33;11.80;56.70
12006;DHT22;6062;47.294;12.182;2022-09-24T15:23:58;11.70;56.80
12006;DHT22;6062;47.294;12.182;2022-09-24T15:26:31;11.60;56.90
12006;DHT22;6062;47.294;12.182;2022-09-24T15:29:00;11.60;57.10
12006;DHT22;6062;47.294;12.182;2022-09-24T15:31:26;11.60;56.90
12006;DHT22;6062;47.294;12.182;2022-09-24T15:33:52;11.60;57.00
12006;DHT22;6062;47.294;12.182;2022-09-24T15:36:19;11.60;57.10
12006;DHT22;6062;47.294;12.182;2022-09-24T15:38:50;11.50;57.10
12006;DHT22;6062;47.294;12.182;2022-09-24T15:41:17;11.50;57.30
12006;DHT22;6062;47.294;12.182;2022-09-24T15:43:44;11.50;57.30
12006;DHT22;6062;47.294;12.182;2022-09-24T15:46:10;11.50;57.20
12006;DHT22;6062;47.294;12.182;2022-09-24T15:48:36;11.40;56.90
12006;DHT22;6062;47.294;12.182;2022-09-24T15:51:02;11.40;57.00
12006;DHT22;6062;47.294;12.182;2022-09-24T15:53:29;11.40;56.90
12006;DHT22;6062;47.294;12.182;2022-09-24T15:56:00;11.30;56.90
12006;DHT22;6062;47.294;12.182;2022-09-24T15:58:27;11.30;56.90
12006;DHT22;6062;47.294;12.182;2022-09-24T16:00:53;11.20;57.10
12006;DHT22;6062;47.294;12.182;2022-09-24T16:03:24;11.20;57.20
12006;DHT22;6062;47.294;12.182;2022-09-24T16:05:52;11.20;57.50
12006;DHT22;6062;47.294;12.182;2022-09-24T16:08:18;11.10;57.30
12006;DHT22;6062;47.294;12.182;2022-09-24T16:10:45;11.10;57.50
12006;DHT22;6062;47.294;12.182;2022-09-24T16:13:12;11.10;57.50
12006;DHT22;6062;47.294;12.182;2022-09-24T16:15:38;11.00;57.40
12006;DHT22;6062;47.294;12.182;2022-09-24T16:18:05;11.00;57.70
12006;DHT22;6062;47.294;12.182;2022-09-24T16:20:32;10.90;57.60
12006;DHT22;6062;47.294;12.182;2022-09-24T16:22:58;10.90;57.70
12006;DHT22;6062;47.294;12.182;2022-09-24T16:25:24;10.90;58.00
12006;DHT22;6062;47.294;12.182;2022-09-24T16:27:50;10.80;58.10
12006;DHT22;6062;47.294;12.182;2022-09-24T16:30:16;10.80;58.10
12006;DHT22;6062;47.294;12.182;2022-09-24T16:32:42;10.80;58.20
12006;DHT22;6062;47.294;12.182;2022-09-24T16:35:08;10.70;58.20
12006;DHT22;6062;47.294;12.182;2022-09-24T16:37:37;10.80;58.40
12006;DHT22;6062;47.294;12.182;2022-09-24T16:40:04;10.70;58.40
12006;DHT22;6062;47.294;12.182;2022-09-24T16:42:30;10.70;58.40
12006;DHT22;6062;47.294;12.182;2022-09-24T16:44:58;10.70;58.30
12006;DHT22;6062;47.294;12.182;2022-09-24T16:47:23;10.60;58.40
12006;DHT22;6062;47.294;12.182;2022-09-24T16:49:49;10.70;58.30
12006;DHT22;6062;47.294;12.182;2022-09-24T16:52:15;10.60;58.40
12006;DHT22;6062;47.294;12.182;2022-09-24T16:54:40;10.60;58.70
12006;DHT22;6062;47.294;12.182;2022-09-24T16:57:06;10.60;58.80
12006;DHT22;6062;47.294;12.182;2022-09-24T16:59:33;10.50;58.80
12006;DHT22;6062;47.294;12.182;2022-09-24T17:01:59;10.50;59.00
12006;DHT22;6062;47.294;12.182;2022-09-24T17:04:25;10.40;58.90
12006;DHT22;6062;47.294;12.182;2022-09-24T17:06:55;10.40;58.90
12006;DHT22;6062;47.294;12.182;2022-09-24T17:09:22;10.30;59.20
12006;DHT22;6062;47.294;12.182;2022-09-24T17:12:07;10.30;59.10
12006;DHT22;6062;47.294;12.182;2022-09-24T17:14:36;10.20;59.30
12006;DHT22;6062;47.294;12.182;2022-09-24T17:17:02;10.20;59.40
12006;DHT22;6062;47.294;12.182;2022-09-24T17:19:28;10.20;59.40
12006;DHT22;6062;47.294;12.182;2022-09-24T17:21:54;10.20;59.50
12006;DHT22;6062;47.294;12.182;2022-09-24T17:24:20;10.20;59.40
12006;DHT22;6062;47.294;12.182;2022-09-24T17:26:45;10.20;59.60
12006;DHT22;6062;47.294;12.182;2022-09-24T17:29:11;10.20;60.00
12006;DHT22;6062;47.294;12.182;2022-09-24T17:31:37;10.30;60.50
12006;DHT22;6062;47.294;12.182;2022-09-24T17:34:06;10.30;60.30
12006;DHT22;6062;47.294;12.182;2022-09-24T17:36:36;10.30;60.00
12006;DHT22;6062;47.294;12.182;2022-09-24T17:39:03;10.30;59.60
12006;DHT22;6062;47.294;12.182;2022-09-24T17:41:30;10.40;59.50
12006;DHT22;6062;47.294;12.182;2022-09-24T17:43:56;10.40;59.20
12006;DHT22;6062;47.294;12.182;2022-09-24T17:46:24;10.40;59.10
12006;DHT22;6062;47.294;12.182;2022-09-24T17:48:56;10.40;59.10
12006;DHT22;6062;47.294;12.182;2022-09-24T17:51:29;10.40;59.00
12006;DHT22;6062;47.294;12.182;2022-09-24T17:53:57;10.40;58.90
12006;DHT22;6062;47.294;12.182;2022-09-24T17:56:26;10.40;58.80
12006;DHT22;6062;47.294;12.182;2022-09-24T17:58:54;10.40;59.00
12006;DHT22;6062;47.294;12.182;2022-09-24T18:01:40;10.40;59.10
12006;DHT22;6062;47.294;12.182;2022-09-24T18:04:16;10.40;59.10
12006;DHT22;6062;47.294;12.182;2022-09-24T18:06:44;10.30;59.00
12006;DHT22;6062;47.294;12.182;2022-09-24T18:09:12;10.30;58.80
12006;DHT22;6062;47.294;12.182;2022-09-24T18:11:47;10.30;58.90